sensor_id;sensor_type;location;lat;lon;timestamp;pressure;altitude;pressure_sealevel;temperature;humidity
63493;BME280;49638;47.526;10.028;2023-07-24T00:01:24;91253.00;;;18.19;65.01
63493;BME280;49638;47.526;10.028;2023-07-24T00:04:24;91264.41;;;18.25;64.79
63493;BME280;49638;47.526;10.028;2023-07-24T00:07:25;91252.22;;;18.18;64.94
63493;BME280;49638;47.526;10.028;2023-07-24T00:10:25;91254.59;;;18.20;64.65
63493;BME280;49638;47.526;10.028;2023-07-24T00:13:26;91254.28;;;18.22;65.45
63493;BME280;49638;47.526;10.028;2023-07-24T00:16:27;91259.34;;;18.23;65.63
63493;BME280;49638;47.526;10.028;2023-07-24T00:19:27;91230.13;;;18.13;65.28
63493;BME280;49638;47.526;10.028;2023-07-24T00:22:27;91250.25;;;18.24;65.13
63493;BME280;49638;47.526;10.028;2023-07-24T00:25:27;91241.22;;;18.20;65.17
63493;BME280;49638;47.526;10.028;2023-07-24T00:28:28;91236.88;;;18.24;64.68
63493;BME280;49638;47.526;10.028;2023-07-24T00:31:28;91230.03;;;18.18;65.12
63493;BME280;49638;47.526;10.028;2023-07-24T00:34:28;91233.50;;;18.18;64.27
63493;BME280;49638;47.526;10.028;2023-07-24T00:37:28;91238.44;;;18.25;64.39
63493;BME280;49638;47.526;10.028;2023-07-24T00:40:29;91240.13;;;18.21;64.24
63493;BME280;49638;47.526;10.028;2023-07-24T00:43:29;91230.41;;;18.25;63.16
63493;BME280;49638;47.526;10.028;2023-07-24T00:46:29;91227.31;;;18.32;62.58
63493;BME280;49638;47.526;10.028;2023-07-24T00:49:32;91214.84;;;18.27;62.72
63493;BME280;49638;47.526;10.028;2023-07-24T00:52:32;91212.38;;;18.31;62.48
63493;BME280;49638;47.526;10.028;2023-07-24T00:55:33;91215.41;;;18.38;61.91
63493;BME280;49638;47.526;10.028;2023-07-24T00:58:36;91215.19;;;18.48;60.93
63493;BME280;49638;47.526;10.028;2023-07-24T01:01:37;91210.03;;;18.52;61.17
63493;BME280;49638;47.526;10.028;2023-07-24T01:04:40;91196.66;;;18.74;59.87
63493;BME280;49638;47.526;10.028;2023-07-24T01:07:40;91191.72;;;18.90;58.71
63493;BME280;49638;47.526;10.028;2023-07-24T01:10:40;91198.88;;;19.03;58.23
63493;BME280;49638;47.526;10.028;2023-07-24T01:13:47;91199.91;;;19.16;56.18
63493;BME280;49638;47.526;10.028;2023-07-24T01:16:54;91196.34;;;19.29;56.50
63493;BME280;49638;47.526;10.028;2023-07-24T01:19:58;91195.25;;;19.39;55.93
63493;BME280;49638;47.526;10.028;2023-07-24T01:26:23;91190.91;;;19.52;55.79
63493;BME280;49638;47.526;10.028;2023-07-24T01:29:24;91183.19;;;19.59;55.80
63493;BME280;49638;47.526;10.028;2023-07-24T01:32:24;91189.53;;;19.63;55.35
63493;BME280;49638;47.526;10.028;2023-07-24T01:35:26;91196.50;;;19.64;55.29
63493;BME280;49638;47.526;10.028;2023-07-24T01:38:28;91196.97;;;19.66;55.26
63493;BME280;49638;47.526;10.028;2023-07-24T01:41:31;91200.63;;;19.70;54.99
63493;BME280;49638;47.526;10.028;2023-07-24T01:44:31;91196.50;;;19.64;55.11
63493;BME280;49638;47.526;10.028;2023-07-24T01:47:32;91218.75;;;19.73;54.95
63493;BME280;49638;47.526;10.028;2023-07-24T01:50:32;91231.88;;;19.75;54.81
63493;BME280;49638;47.526;10.028;2023-07-24T01:53:33;91267.81;;;19.74;54.81
63493;BME280;49638;47.526;10.028;2023-07-24T01:56:36;91300.03;;;19.82;54.40
63493;BME280;49638;47.526;10.028;2023-07-24T01:59:36;91327.16;;;19.81;54.68
63493;BME280;49638;47.526;10.028;2023-07-24T02:02:36;91316.91;;;19.83;55.10
63493;BME280;49638;47.526;10.028;2023-07-24T02:05:36;91333.78;;;19.83;55.08
63493;BME280;49638;47.526;10.028;2023-07-24T02:08:37;91322.59;;;19.81;55.55
63493;BME280;49638;47.526;10.028;2023-07-24T02:11:37;91313.59;;;19.77;55.77
63493;BME280;49638;47.526;10.028;2023-07-24T02:14:37;91304.69;;;19.68;56.58
63493;BME280;49638;47.526;10.028;2023-07-24T02:17:38;91283.66;;;19.61;56.70
63493;BME280;49638;47.526;10.028;2023-07-24T02:20:39;91254.97;;;19.62;56.79
63493;BME280;49638;47.526;10.028;2023-07-24T02:23:39;91247.34;;;19.55;57.47
63493;BME280;49638;47.526;10.028;2023-07-24T02:26:39;91249.19;;;19.46;57.45
63493;BME280;49638;47.526;10.028;2023-07-24T02:29:39;91255.50;;;19.42;57.75
63493;BME280;49638;47.526;10.028;2023-07-24T02:32:40;91260.19;;;19.36;57.95
63493;BME280;49638;47.526;10.028;2023-07-24T02:35:41;91258.25;;;19.28;58.74
63493;BME280;49638;47.526;10.028;2023-07-24T02:38:41;91242.16;;;19.19;59.24
63493;BME280;49638;47.526;10.028;2023-07-24T02:41:41;91229.63;;;19.06;59.60
63493;BME280;49638;47.526;10.028;2023-07-24T02:44:42;91232.13;;;19.02;60.09
63493;BME280;49638;47.526;10.028;2023-07-24T02:47:42;91227.81;;;18.93;60.40
63493;BME280;49638;47.526;10.028;2023-07-24T02:50:42;91214.84;;;18.86;60.53
63493;BME280;49638;47.526;10.028;2023-07-24T02:53:43;91209.44;;;18.77;60.71
63493;BME280;49638;47.526;10.028;2023-07-24T02:56:43;91205.56;;;18.70;60.99
63493;BME280;49638;47.526;10.028;2023-07-24T02:59:43;91206.44;;;18.56;61.56
63493;BME280;49638;47.526;10.028;2023-07-24T03:02:43;91207.16;;;18.48;62.06
63493;BME280;49638;47.526;10.028;2023-07-24T03:05:44;91215.28;;;18.43;62.35
63493;BME280;49638;47.526;10.028;2023-07-24T03:08:44;91219.50;;;18.35;62.52
63493;BME280;49638;47.526;10.028;2023-07-24T03:11:44;91219.50;;;18.35;62.33
63493;BME280;49638;47.526;10.028;2023-07-24T03:14:44;91192.19;;;18.25;62.48
63493;BME280;49638;47.526;10.028;2023-07-24T03:17:45;91200.38;;;18.28;62.61
63493;BME280;49638;47.526;10.028;2023-07-24T03:20:45;91193.44;;;18.27;62.39
63493;BME280;49638;47.526;10.028;2023-07-24T03:23:45;91196.09;;;18.27;62.41
63493;BME280;49638;47.526;10.028;2023-07-24T03:26:46;91197.72;;;18.28;62.39
63493;BME280;49638;47.526;10.028;2023-07-24T03:29:46;91202.75;;;18.30;62.57
63493;BME280;49638;47.526;10.028;2023-07-24T03:32:46;91202.94;;;18.33;62.28
63493;BME280;49638;47.526;10.028;2023-07-24T03:35:46;91205.59;;;18.33;62.22
63493;BME280;49638;47.526;10.028;2023-07-24T03:38:47;91214.75;;;18.32;62.43
63493;BME280;49638;47.526;10.028;2023-07-24T03:41:47;91208.09;;;18.30;62.45
63493;BME280;49638;47.526;10.028;2023-07-24T03:44:47;91223.38;;;18.29;62.72
63493;BME280;49638;47.526;10.028;2023-07-24T03:47:47;91216.25;;;18.25;62.90
63493;BME280;49638;47.526;10.028;2023-07-24T03:50:49;91211.78;;;18.20;63.57
63493;BME280;49638;47.526;10.028;2023-07-24T03:53:50;91200.63;;;18.18;63.66
63493;BME280;49638;47.526;10.028;2023-07-24T03:56:50;91192.09;;;18.16;63.99
63493;BME280;49638;47.526;10.028;2023-07-24T03:59:51;91186.56;;;18.12;63.88
63493;BME280;49638;47.526;10.028;2023-07-24T04:02:51;91172.50;;;18.07;64.02
63493;BME280;49638;47.526;10.028;2023-07-24T04:05:51;91172.22;;;18.08;63.70
63493;BME280;49638;47.526;10.028;2023-07-24T04:08:52;91165.38;;;18.02;63.99
63493;BME280;49638;47.526;10.028;2023-07-24T04:11:52;91158.28;;;17.98;64.20
63493;BME280;49638;47.526;10.028;2023-07-24T04:14:52;91159.53;;;18.00;63.87
63493;BME280;49638;47.526;10.028;2023-07-24T04:17:52;91149.16;;;17.99;63.52
63493;BME280;49638;47.526;10.028;2023-07-24T04:20:53;91149.72;;;18.09;64.12
63493;BME280;49638;47.526;10.028;2023-07-24T04:23:53;91140.00;;;18.13;63.74
63493;BME280;49638;47.526;10.028;2023-07-24T04:26:53;91137.81;;;18.15;63.44
63493;BME280;49638;47.526;10.028;2023-07-24T04:29:54;91138.38;;;18.26;63.49
63493;BME280;49638;47.526;10.028;2023-07-24T04:32:54;91144.69;;;18.30;64.24
63493;BME280;49638;47.526;10.028;2023-07-24T04:35:55;91152.00;;;18.38;64.38
63493;BME280;49638;47.526;10.028;2023-07-24T04:38:55;91143.56;;;18.45;65.00
63493;BME280;49638;47.526;10.028;2023-07-24T04:41:56;91157.59;;;18.73;65.06
63493;BME280;49638;47.526;10.028;2023-07-24T04:44:56;91156.22;;;19.07;64.27
63493;BME280;49638;47.526;10.028;2023-07-24T04:47:56;91161.69;;;19.33;63.69
63493;BME280;49638;47.526;10.028;2023-07-24T04:50:56;91153.63;;;19.73;63.01
63493;BME280;49638;47.526;10.028;2023-07-24T04:53:57;91150.34;;;20.11;61.79
63493;BME280;49638;47.526;10.028;2023-07-24T04:56:57;91147.53;;;20.42;61.84
63493;BME280;49638;47.526;10.028;2023-07-24T04:59:57;91142.34;;;20.45;62.88
63493;BME280;49638;47.526;10.028;2023-07-24T05:02:57;91130.16;;;20.48;63.35
63493;BME280;49638;47.526;10.028;2023-07-24T05:05:58;91121.16;;;20.44;63.59
63493;BME280;49638;47.526;10.028;2023-07-24T05:08:58;91123.84;;;20.44;63.50
63493;BME280;49638;47.526;10.028;2023-07-24T05:11:58;91117.06;;;20.38;63.41
63493;BME280;49638;47.526;10.028;2023-07-24T05:14:59;91105.25;;;20.21;64.27
63493;BME280;49638;47.526;10.028;2023-07-24T05:17:59;91097.19;;;20.13;64.98
63493;BME280;49638;47.526;10.028;2023-07-24T05:20:59;91097.66;;;20.06;64.71
63493;BME280;49638;47.526;10.028;2023-07-24T05:24:00;91083.78;;;19.95;65.03
63493;BME280;49638;47.526;10.028;2023-07-24T05:27:00;91084.06;;;19.94;65.65
63493;BME280;49638;47.526;10.028;2023-07-24T05:30:00;91082.19;;;20.20;65.12
63493;BME280;49638;47.526;10.028;2023-07-24T05:33:00;91077.28;;;20.57;65.19
63493;BME280;49638;47.526;10.028;2023-07-24T05:36:02;91091.81;;;21.12;64.78
63493;BME280;49638;47.526;10.028;2023-07-24T05:39:03;91093.28;;;21.39;64.29
63493;BME280;49638;47.526;10.028;2023-07-24T05:42:04;91090.50;;;21.56;63.22
63493;BME280;49638;47.526;10.028;2023-07-24T05:45:06;91115.88;;;21.76;63.15
63493;BME280;49638;47.526;10.028;2023-07-24T05:48:06;91124.44;;;21.69;63.23
63493;BME280;49638;47.526;10.028;2023-07-24T05:51:06;91158.84;;;21.55;64.18
63493;BME280;49638;47.526;10.028;2023-07-24T05:54:07;91255.22;;;21.36;64.49
63493;BME280;49638;47.526;10.028;2023-07-24T05:57:07;91294.28;;;20.98;63.94
63493;BME280;49638;47.526;10.028;2023-07-24T06:00:07;91334.41;;;20.77;63.12
63493;BME280;49638;47.526;10.028;2023-07-24T06:03:08;91438.25;;;20.51;63.04
63493;BME280;49638;47.526;10.028;2023-07-24T06:06:08;91456.50;;;20.31;63.29
63493;BME280;49638;47.526;10.028;2023-07-24T06:09:08;91472.69;;;19.95;65.48
63493;BME280;49638;47.526;10.028;2023-07-24T06:12:08;91469.38;;;19.53;67.23
63493;BME280;49638;47.526;10.028;2023-07-24T06:15:09;91484.72;;;19.25;68.55
63493;BME280;49638;47.526;10.028;2023-07-24T06:18:10;91489.94;;;18.94;70.09
63493;BME280;49638;47.526;10.028;2023-07-24T06:21:10;91481.28;;;18.70;71.29
63493;BME280;49638;47.526;10.028;2023-07-24T06:24:11;91479.50;;;18.51;72.57
63493;BME280;49638;47.526;10.028;2023-07-24T06:27:12;91468.88;;;18.32;73.00
63493;BME280;49638;47.526;10.028;2023-07-24T06:30:12;91469.97;;;18.31;73.96
63493;BME280;49638;47.526;10.028;2023-07-24T06:33:13;91445.91;;;18.31;74.70
63493;BME280;49638;47.526;10.028;2023-07-24T06:36:13;91398.22;;;18.33;75.05
63493;BME280;49638;47.526;10.028;2023-07-24T06:39:13;91364.44;;;18.24;75.40
63493;BME280;49638;47.526;10.028;2023-07-24T06:42:13;91378.63;;;18.24;75.68
63493;BME280;49638;47.526;10.028;2023-07-24T06:45:14;91393.94;;;18.60;75.49
63493;BME280;49638;47.526;10.028;2023-07-24T06:48:14;91396.66;;;19.10;74.26
63493;BME280;49638;47.526;10.028;2023-07-24T06:51:14;91375.72;;;19.34;74.26
63493;BME280;49638;47.526;10.028;2023-07-24T06:54:14;91361.97;;;19.27;74.56
63493;BME280;49638;47.526;10.028;2023-07-24T06:57:15;91356.84;;;19.17;74.96
63493;BME280;49638;47.526;10.028;2023-07-24T07:00:15;91332.56;;;19.13;75.12
63493;BME280;49638;47.526;10.028;2023-07-24T07:03:15;91313.31;;;19.11;75.13
63493;BME280;49638;47.526;10.028;2023-07-24T07:06:16;91300.22;;;19.10;75.52
63493;BME280;49638;47.526;10.028;2023-07-24T07:09:16;91288.06;;;19.04;75.37
63493;BME280;49638;47.526;10.028;2023-07-24T07:12:17;91280.88;;;19.13;75.33
63493;BME280;49638;47.526;10.028;2023-07-24T07:15:17;91294.44;;;19.17;75.44
63493;BME280;49638;47.526;10.028;2023-07-24T07:18:17;91285.44;;;19.12;75.12
63493;BME280;49638;47.526;10.028;2023-07-24T07:21:18;91259.88;;;19.06;74.70
63493;BME280;49638;47.526;10.028;2023-07-24T07:24:18;91271.72;;;19.14;74.59
63493;BME280;49638;47.526;10.028;2023-07-24T07:27:18;91255.72;;;19.23;74.39
63493;BME280;49638;47.526;10.028;2023-07-24T07:30:18;91237.50;;;19.33;74.18
63493;BME280;49638;47.526;10.028;2023-07-24T07:33:19;91234.56;;;19.44;73.91
63493;BME280;49638;47.526;10.028;2023-07-24T07:36:21;91227.97;;;19.50;73.56
63493;BME280;49638;47.526;10.028;2023-07-24T07:39:22;91222.44;;;19.55;73.44
63493;BME280;49638;47.526;10.028;2023-07-24T07:42:23;91220.38;;;19.52;73.02
63493;BME280;49638;47.526;10.028;2023-07-24T07:45:23;91216.91;;;19.51;73.28
63493;BME280;49638;47.526;10.028;2023-07-24T07:48:23;91210.63;;;19.56;74.16
63493;BME280;49638;47.526;10.028;2023-07-24T07:51:24;91195.31;;;19.56;74.28
63493;BME280;49638;47.526;10.028;2023-07-24T07:54:25;91210.72;;;19.73;73.56
63493;BME280;49638;47.526;10.028;2023-07-24T07:57:26;91222.41;;;19.77;73.92
63493;BME280;49638;47.526;10.028;2023-07-24T08:00:26;91210.63;;;19.87;74.31
63493;BME280;49638;47.526;10.028;2023-07-24T08:03:26;91207.59;;;19.89;74.52
63493;BME280;49638;47.526;10.028;2023-07-24T08:06:26;91216.16;;;19.91;74.79
63493;BME280;49638;47.526;10.028;2023-07-24T08:09:27;91194.03;;;19.94;74.62
63493;BME280;49638;47.526;10.028;2023-07-24T08:12:27;91214.59;;;20.07;74.84
63493;BME280;49638;47.526;10.028;2023-07-24T08:15:28;91215.41;;;20.07;75.12
63493;BME280;49638;47.526;10.028;2023-07-24T08:18:29;91208.25;;;20.03;75.04
63493;BME280;49638;47.526;10.028;2023-07-24T08:21:30;91192.34;;;20.06;74.95
63493;BME280;49638;47.526;10.028;2023-07-24T08:24:33;91201.19;;;20.16;76.48
63493;BME280;49638;47.526;10.028;2023-07-24T08:27:33;91203.41;;;20.22;75.75
63493;BME280;49638;47.526;10.028;2023-07-24T08:30:34;91214.78;;;20.28;75.20
63493;BME280;49638;47.526;10.028;2023-07-24T08:33:34;91211.78;;;20.29;75.31
63493;BME280;49638;47.526;10.028;2023-07-24T08:36:35;91204.19;;;20.23;74.99
63493;BME280;49638;47.526;10.028;2023-07-24T08:39:37;91206.41;;;20.29;74.86
63493;BME280;49638;47.526;10.028;2023-07-24T08:42:39;91196.78;;;20.28;74.69
63493;BME280;49638;47.526;10.028;2023-07-24T08:45:40;91186.19;;;20.23;74.47
63493;BME280;49638;47.526;10.028;2023-07-24T08:48:42;91157.31;;;20.12;75.04
63493;BME280;49638;47.526;10.028;2023-07-24T08:51:43;91153.69;;;20.16;75.28
63493;BME280;49638;47.526;10.028;2023-07-24T08:54:44;91146.13;;;20.18;75.43
63493;BME280;49638;47.526;10.028;2023-07-24T08:57:45;91147.69;;;20.19;75.91
63493;BME280;49638;47.526;10.028;2023-07-24T09:00:46;91109.16;;;20.24;76.16
63493;BME280;49638;47.526;10.028;2023-07-24T09:03:46;91091.03;;;20.29;75.73
63493;BME280;49638;47.526;10.028;2023-07-24T09:06:47;91078.09;;;20.31;76.24
63493;BME280;49638;47.526;10.028;2023-07-24T09:09:47;91095.59;;;20.38;76.63
63493;BME280;49638;47.526;10.028;2023-07-24T09:12:49;91090.69;;;20.48;77.09
63493;BME280;49638;47.526;10.028;2023-07-24T09:15:49;91085.34;;;20.57;76.67
63493;BME280;49638;47.526;10.028;2023-07-24T09:18:50;91093.03;;;20.67;77.18
63493;BME280;49638;47.526;10.028;2023-07-24T09:21:53;91066.19;;;20.76;77.00
63493;BME280;49638;47.526;10.028;2023-07-24T09:24:55;91068.34;;;20.91;76.64
63493;BME280;49638;47.526;10.028;2023-07-24T09:27:56;91067.66;;;21.03;76.32
63493;BME280;49638;47.526;10.028;2023-07-24T09:30:57;91043.78;;;21.10;76.34
63493;BME280;49638;47.526;10.028;2023-07-24T09:33:58;91055.72;;;21.21;76.18
63493;BME280;49638;47.526;10.028;2023-07-24T09:36:58;91066.59;;;21.34;76.25
63493;BME280;49638;47.526;10.028;2023-07-24T09:39:59;91060.88;;;21.44;75.79
63493;BME280;49638;47.526;10.028;2023-07-24T09:42:59;91067.44;;;21.55;75.61
63493;BME280;49638;47.526;10.028;2023-07-24T09:45:59;91073.88;;;21.63;76.01
63493;BME280;49638;47.526;10.028;2023-07-24T09:48:59;91067.19;;;21.69;75.59
63493;BME280;49638;47.526;10.028;2023-07-24T09:52:06;91072.97;;;21.80;72.58
63493;BME280;49638;47.526;10.028;2023-07-24T09:55:29;91065.38;;;21.82;70.93
63493;BME280;49638;47.526;10.028;2023-07-24T09:58:33;91065.38;;;21.82;72.60
63493;BME280;49638;47.526;10.028;2023-07-24T10:01:37;91042.84;;;21.86;72.39
63493;BME280;49638;47.526;10.028;2023-07-24T10:04:38;91048.06;;;21.91;72.14
63493;BME280;49638;47.526;10.028;2023-07-24T10:07:40;91048.97;;;21.95;71.83
63493;BME280;49638;47.526;10.028;2023-07-24T10:10:41;91030.13;;;21.95;71.17
63493;BME280;49638;47.526;10.028;2023-07-24T10:13:42;91020.22;;;22.08;70.64
63493;BME280;49638;47.526;10.028;2023-07-24T10:16:44;91003.25;;;22.08;70.43
63493;BME280;49638;47.526;10.028;2023-07-24T10:19:45;90987.53;;;22.18;69.98
63493;BME280;49638;47.526;10.028;2023-07-24T10:22:45;90984.50;;;22.20;69.69
63493;BME280;49638;47.526;10.028;2023-07-24T10:25:49;90987.72;;;22.13;67.99
63493;BME280;49638;47.526;10.028;2023-07-24T10:28:50;90996.06;;;22.20;68.98
63493;BME280;49638;47.526;10.028;2023-07-24T10:31:54;91001.56;;;22.24;68.76
63493;BME280;49638;47.526;10.028;2023-07-24T10:35:07;91005.50;;;22.27;68.07
63493;BME280;49638;47.526;10.028;2023-07-24T10:38:10;90990.91;;;22.28;69.14
63493;BME280;49638;47.526;10.028;2023-07-24T10:41:11;90977.94;;;22.30;69.16
63493;BME280;49638;47.526;10.028;2023-07-24T10:44:11;91001.84;;;22.43;69.16
63493;BME280;49638;47.526;10.028;2023-07-24T10:47:12;91007.81;;;22.49;69.02
63493;BME280;49638;47.526;10.028;2023-07-24T10:50:12;90987.84;;;22.50;69.14
63493;BME280;49638;47.526;10.028;2023-07-24T10:53:18;90988.13;;;22.70;69.34
63493;BME280;49638;47.526;10.028;2023-07-24T10:56:18;90991.03;;;22.77;69.41
63493;BME280;49638;47.526;10.028;2023-07-24T10:59:19;91000.81;;;22.81;69.83
63493;BME280;49638;47.526;10.028;2023-07-24T11:02:19;91001.03;;;22.88;69.99
63493;BME280;49638;47.526;10.028;2023-07-24T11:05:21;91018.66;;;22.86;70.47
63493;BME280;49638;47.526;10.028;2023-07-24T11:08:21;91037.50;;;22.86;71.00
63493;BME280;49638;47.526;10.028;2023-07-24T11:14:30;91037.28;;;22.79;71.09
63493;BME280;49638;47.526;10.028;2023-07-24T11:17:35;91053.31;;;22.75;70.56
63493;BME280;49638;47.526;10.028;2023-07-24T11:20:45;91090.66;;;22.64;71.26
63493;BME280;49638;47.526;10.028;2023-07-24T11:23:50;91068.88;;;22.57;71.09
63493;BME280;49638;47.526;10.028;2023-07-24T11:26:52;91056.31;;;22.61;71.32
63493;BME280;49638;47.526;10.028;2023-07-24T11:29:52;91063.06;;;22.67;71.16
63493;BME280;49638;47.526;10.028;2023-07-24T11:32:53;91057.91;;;22.62;70.96
63493;BME280;49638;47.526;10.028;2023-07-24T11:35:53;91058.22;;;22.61;70.82
63493;BME280;49638;47.526;10.028;2023-07-24T11:38:54;91054.03;;;22.51;71.09
63493;BME280;49638;47.526;10.028;2023-07-24T11:41:54;91083.88;;;22.46;71.48
63493;BME280;49638;47.526;10.028;2023-07-24T11:44:54;91140.22;;;22.30;71.95
63493;BME280;49638;47.526;10.028;2023-07-24T11:47:54;91197.34;;;22.15;72.32
63493;BME280;49638;47.526;10.028;2023-07-24T11:50:56;91221.47;;;21.94;72.30
63493;BME280;49638;47.526;10.028;2023-07-24T11:54:06;91226.19;;;21.67;76.52
63493;BME280;49638;47.526;10.028;2023-07-24T11:57:16;91209.03;;;21.42;77.95
63493;BME280;49638;47.526;10.028;2023-07-24T12:00:21;91223.63;;;21.15;77.49
63493;BME280;49638;47.526;10.028;2023-07-24T12:03:22;91257.63;;;20.94;76.60
63493;BME280;49638;47.526;10.028;2023-07-24T12:06:24;91267.28;;;20.69;77.62
63493;BME280;49638;47.526;10.028;2023-07-24T12:09:29;91238.00;;;20.50;78.41
63493;BME280;49638;47.526;10.028;2023-07-24T12:12:58;91265.44;;;20.29;80.42
63493;BME280;49638;47.526;10.028;2023-07-24T12:15:59;91279.59;;;20.04;78.96
63493;BME280;49638;47.526;10.028;2023-07-24T12:18:59;91333.66;;;19.89;79.78
63493;BME280;49638;47.526;10.028;2023-07-24T12:21:59;91366.34;;;19.68;79.73
63493;BME280;49638;47.526;10.028;2023-07-24T12:25:04;91291.03;;;19.56;80.56
63493;BME280;49638;47.526;10.028;2023-07-24T12:28:05;91265.00;;;19.56;81.21
63493;BME280;49638;47.526;10.028;2023-07-24T12:31:05;91252.53;;;19.52;81.33
63493;BME280;49638;47.526;10.028;2023-07-24T12:34:06;91223.72;;;19.57;80.96
63493;BME280;49638;47.526;10.028;2023-07-24T12:37:07;91217.78;;;19.69;80.79
63493;BME280;49638;47.526;10.028;2023-07-24T12:40:08;91200.06;;;19.91;81.39
63493;BME280;49638;47.526;10.028;2023-07-24T12:43:09;91201.31;;;20.11;81.36
63493;BME280;49638;47.526;10.028;2023-07-24T12:46:10;91162.84;;;20.15;81.05
63493;BME280;49638;47.526;10.028;2023-07-24T12:49:10;91141.06;;;20.17;80.56
63493;BME280;49638;47.526;10.028;2023-07-24T12:52:11;91159.84;;;20.17;80.58
63493;BME280;49638;47.526;10.028;2023-07-24T12:55:11;91118.50;;;20.18;80.78
63493;BME280;49638;47.526;10.028;2023-07-24T12:58:11;91099.41;;;20.19;81.00
63493;BME280;49638;47.526;10.028;2023-07-24T13:01:11;91106.78;;;20.31;80.60
63493;BME280;49638;47.526;10.028;2023-07-24T13:04:12;91093.88;;;20.33;80.58
63493;BME280;49638;47.526;10.028;2023-07-24T13:07:12;91093.56;;;20.35;80.82
63493;BME280;49638;47.526;10.028;2023-07-24T13:10:13;91094.50;;;20.39;80.77
63493;BME280;49638;47.526;10.028;2023-07-24T13:13:13;91081.22;;;20.42;80.29
63493;BME280;49638;47.526;10.028;2023-07-24T13:16:13;91076.94;;;20.50;80.01
63493;BME280;49638;47.526;10.028;2023-07-24T13:19:13;91087.22;;;20.57;79.87
63493;BME280;49638;47.526;10.028;2023-07-24T13:22:14;91085.34;;;20.57;79.42
63493;BME280;49638;47.526;10.028;2023-07-24T13:25:14;91060.84;;;20.50;78.73
63493;BME280;49638;47.526;10.028;2023-07-24T13:28:14;91054.38;;;20.42;78.23
63493;BME280;49638;47.526;10.028;2023-07-24T13:31:19;91055.81;;;20.48;78.81
63493;BME280;49638;47.526;10.028;2023-07-24T13:34:19;91056.78;;;20.52;78.69
63493;BME280;49638;47.526;10.028;2023-07-24T13:37:20;91061.34;;;20.52;78.72
63493;BME280;49638;47.526;10.028;2023-07-24T13:40:21;91067.97;;;20.46;78.90
63493;BME280;49638;47.526;10.028;2023-07-24T13:43:21;91063.38;;;20.38;79.14
63493;BME280;49638;47.526;10.028;2023-07-24T13:46:22;91061.66;;;20.42;79.23
63493;BME280;49638;47.526;10.028;2023-07-24T13:49:22;91064.03;;;20.35;78.99
63493;BME280;49638;47.526;10.028;2023-07-24T13:52:22;91070.78;;;20.41;78.65
63493;BME280;49638;47.526;10.028;2023-07-24T13:55:22;91065.47;;;20.32;77.71
63493;BME280;49638;47.526;10.028;2023-07-24T13:58:23;91063.22;;;20.34;77.43
63493;BME280;49638;47.526;10.028;2023-07-24T14:01:23;91044.63;;;20.29;76.79
63493;BME280;49638;47.526;10.028;2023-07-24T14:04:23;91049.03;;;20.33;76.73
63493;BME280;49638;47.526;10.028;2023-07-24T14:07:24;91032.28;;;20.37;77.81
63493;BME280;49638;47.526;10.028;2023-07-24T14:10:24;91010.38;;;20.35;76.60
63493;BME280;49638;47.526;10.028;2023-07-24T14:13:24;91011.78;;;20.32;76.13
63493;BME280;49638;47.526;10.028;2023-07-24T14:16:24;91006.88;;;20.34;75.77
63493;BME280;49638;47.526;10.028;2023-07-24T14:19:25;91003.25;;;20.39;74.49
63493;BME280;49638;47.526;10.028;2023-07-24T14:22:26;91013.00;;;20.43;73.73
63493;BME280;49638;47.526;10.028;2023-07-24T14:25:26;91010.19;;;20.48;73.02
63493;BME280;49638;47.526;10.028;2023-07-24T14:28:26;90994.38;;;20.55;73.19
63493;BME280;49638;47.526;10.028;2023-07-24T14:31:27;90996.25;;;20.64;73.17
63493;BME280;49638;47.526;10.028;2023-07-24T14:34:28;91006.50;;;20.70;72.91
63493;BME280;49638;47.526;10.028;2023-07-24T14:37:28;90999.84;;;20.76;73.36
63493;BME280;49638;47.526;10.028;2023-07-24T14:40:29;90977.84;;;20.83;73.79
63493;BME280;49638;47.526;10.028;2023-07-24T14:43:29;90972.63;;;20.87;73.81
63493;BME280;49638;47.526;10.028;2023-07-24T14:46:29;90980.19;;;20.85;73.75
63493;BME280;49638;47.526;10.028;2023-07-24T14:49:30;90968.25;;;20.73;73.44
63493;BME280;49638;47.526;10.028;2023-07-24T14:52:30;90981.19;;;20.71;73.22
63493;BME280;49638;47.526;10.028;2023-07-24T14:55:30;90980.91;;;20.64;73.47
63493;BME280;49638;47.526;10.028;2023-07-24T14:58:30;90954.75;;;20.52;73.32
63493;BME280;49638;47.526;10.028;2023-07-24T15:01:31;90944.47;;;20.54;72.90
63493;BME280;49638;47.526;10.028;2023-07-24T15:04:31;90927.75;;;20.49;73.12
63493;BME280;49638;47.526;10.028;2023-07-24T15:07:31;90939.13;;;20.46;73.59
63493;BME280;49638;47.526;10.028;2023-07-24T15:10:31;90952.84;;;20.44;74.59
63493;BME280;49638;47.526;10.028;2023-07-24T15:13:32;90959.97;;;20.40;75.90
63493;BME280;49638;47.526;10.028;2023-07-24T15:16:32;90942.03;;;20.32;76.74
63493;BME280;49638;47.526;10.028;2023-07-24T15:19:32;90958.13;;;20.23;77.51
63493;BME280;49638;47.526;10.028;2023-07-24T15:22:33;90959.09;;;20.10;78.24
63493;BME280;49638;47.526;10.028;2023-07-24T15:25:33;90971.94;;;20.04;79.10
63493;BME280;49638;47.526;10.028;2023-07-24T15:28:33;90995.75;;;19.97;79.67
63493;BME280;49638;47.526;10.028;2023-07-24T15:31:33;91014.69;;;19.83;80.55
63493;BME280;49638;47.526;10.028;2023-07-24T15:34:36;91029.69;;;19.67;81.01
63493;BME280;49638;47.526;10.028;2023-07-24T15:37:37;91042.59;;;19.65;81.77
63493;BME280;49638;47.526;10.028;2023-07-24T15:40:37;91027.28;;;19.57;82.16
63493;BME280;49638;47.526;10.028;2023-07-24T15:43:39;91018.25;;;19.53;82.85
63493;BME280;49638;47.526;10.028;2023-07-24T15:46:40;91035.63;;;19.47;83.30
63493;BME280;49638;47.526;10.028;2023-07-24T15:49:40;90979.94;;;19.35;83.85
63493;BME280;49638;47.526;10.028;2023-07-24T15:52:40;91009.59;;;19.30;84.14